sensor_id;sensor_type;location;lat;lon;timestamp;P1;durP1;ratioP1;P2;durP2;ratioP2
70002;SDS011;57341;51.984;5.088;2022-08-11T00:01:14;9.77;;;3.00;;
70002;SDS011;57341;51.984;5.088;2022-08-11T00:03:47;8.77;;;3.35;;
70002;SDS011;57341;51.984;5.088;2022-08-11T00:06:23;8.60;;;3.10;;
70002;SDS011;57341;51.984;5.088;2022-08-11T00:08:51;9.77;;;3.33;;
70002;SDS011;57341;51.984;5.088;2022-08-11T00:11:20;7.32;;;2.72;;
70002;SDS011;57341;51.984;5.088;2022-08-11T00:13:52;8.30;;;2.83;;
70002;SDS011;57341;51.984;5.088;2022-08-11T00:16:20;8.85;;;2.90;;
70002;SDS011;57341;51.984;5.088;2022-08-11T00:18:50;8.77;;;2.75;;
70002;SDS011;57341;51.984;5.088;2022-08-11T00:21:20;6.65;;;2.80;;
70002;SDS011;57341;51.984;5.088;2022-08-11T00:24:09;9.18;;;2.90;;
70002;SDS011;57341;51.984;5.088;2022-08-11T00:26:36;9.35;;;3.00;;
70002;SDS011;57341;51.984;5.088;2022-08-11T00:29:07;9.52;;;2.95;;
70002;SDS011;57341;51.984;5.088;2022-08-11T00:31:35;8.63;;;3.05;;
70002;SDS011;57341;51.984;5.088;2022-08-11T00:34:07;10.57;;;3.53;;
70002;SDS011;57341;51.984;5.088;2022-08-11T00:36:48;8.82;;;3.20;;
70002;SDS011;57341;51.984;5.088;2022-08-11T00:39:21;10.85;;;3.17;;
70002;SDS011;57341;51.984;5.088;2022-08-11T00:50:12;10.07;;;3.33;;
70002;SDS011;57341;51.984;5.088;2022-08-11T00:53:02;8.40;;;2.58;;
70002;SDS011;57341;51.984;5.088;2022-08-11T00:55:41;10.02;;;3.13;;
70002;SDS011;57341;51.984;5.088;2022-08-11T01:06:44;10.93;;;3.00;;
70002;SDS011;57341;51.984;5.088;2022-08-11T01:09:48;10.15;;;3.53;;
70002;SDS011;57341;51.984;5.088;2022-08-11T01:18:51;11.40;;;3.33;;
70002;SDS011;57341;51.984;5.088;2022-08-11T01:24:44;8.50;;;3.42;;
70002;SDS011;57341;51.984;5.088;2022-08-11T01:33:52;9.88;;;3.25;;
70002;SDS011;57341;51.984;5.088;2022-08-11T01:51:04;10.13;;;3.70;;
70002;SDS011;57341;51.984;5.088;2022-08-11T01:56:37;7.32;;;2.60;;
70002;SDS011;57341;51.984;5.088;2022-08-11T02:05:13;8.45;;;3.33;;
70002;SDS011;57341;51.984;5.088;2022-08-11T02:07:57;8.88;;;3.30;;
70002;SDS011;57341;51.984;5.088;2022-08-11T02:10:43;9.25;;;2.90;;
70002;SDS011;57341;51.984;5.088;2022-08-11T02:22:08;12.75;;;3.42;;
70002;SDS011;57341;51.984;5.088;2022-08-11T02:25:08;10.25;;;3.53;;
70002;SDS011;57341;51.984;5.088;2022-08-11T02:28:09;10.73;;;3.40;;
70002;SDS011;57341;51.984;5.088;2022-08-11T02:31:02;14.27;;;3.40;;
70002;SDS011;57341;51.984;5.088;2022-08-11T02:34:21;9.38;;;3.58;;
70002;SDS011;57341;51.984;5.088;2022-08-11T02:42:33;10.60;;;3.70;;
70002;SDS011;57341;51.984;5.088;2022-08-11T02:50:55;10.13;;;3.53;;
70002;SDS011;57341;51.984;5.088;2022-08-11T02:53:26;6.38;;;2.63;;
70002;SDS011;57341;51.984;5.088;2022-08-11T02:59:54;9.70;;;3.70;;
70002;SDS011;57341;51.984;5.088;2022-08-11T03:12:52;11.40;;;3.88;;
70002;SDS011;57341;51.984;5.088;2022-08-11T03:18:38;9.63;;;4.00;;
70002;SDS011;57341;51.984;5.088;2022-08-11T03:21:19;11.10;;;3.75;;
70002;SDS011;57341;51.984;5.088;2022-08-11T03:24:11;9.73;;;3.38;;
70002;SDS011;57341;51.984;5.088;2022-08-11T03:29:41;9.13;;;3.40;;
70002;SDS011;57341;51.984;5.088;2022-08-11T03:35:35;12.55;;;3.63;;
70002;SDS011;57341;51.984;5.088;2022-08-11T03:38:15;12.40;;;3.88;;
70002;SDS011;57341;51.984;5.088;2022-08-11T03:41:07;8.38;;;3.50;;
70002;SDS011;57341;51.984;5.088;2022-08-11T03:44:31;10.20;;;4.07;;
70002;SDS011;57341;51.984;5.088;2022-08-11T03:53:12;9.68;;;3.58;;
70002;SDS011;57341;51.984;5.088;2022-08-11T03:55:57;8.75;;;3.47;;
70002;SDS011;57341;51.984;5.088;2022-08-11T03:58:56;11.40;;;3.88;;
70002;SDS011;57341;51.984;5.088;2022-08-11T04:12:38;9.65;;;3.80;;
70002;SDS011;57341;51.984;5.088;2022-08-11T04:18:19;10.15;;;3.97;;
70002;SDS011;57341;51.984;5.088;2022-08-11T04:57:21;11.85;;;4.50;;
70002;SDS011;57341;51.984;5.088;2022-08-11T05:00:16;9.98;;;4.10;;
70002;SDS011;57341;51.984;5.088;2022-08-11T05:12:04;10.88;;;4.13;;
70002;SDS011;57341;51.984;5.088;2022-08-11T05:14:52;12.30;;;4.30;;
70002;SDS011;57341;51.984;5.088;2022-08-11T05:17:54;9.98;;;3.70;;
70002;SDS011;57341;51.984;5.088;2022-08-11T05:20:43;11.05;;;4.75;;
70002;SDS011;57341;51.984;5.088;2022-08-11T05:23:34;11.52;;;4.30;;
70002;SDS011;57341;51.984;5.088;2022-08-11T05:26:25;9.68;;;3.60;;
70002;SDS011;57341;51.984;5.088;2022-08-11T05:32:41;9.18;;;4.05;;
70002;SDS011;57341;51.984;5.088;2022-08-11T05:35:40;11.32;;;4.60;;
70002;SDS011;57341;51.984;5.088;2022-08-11T05:38:28;10.57;;;4.38;;
70002;SDS011;57341;51.984;5.088;2022-08-11T05:41:23;10.60;;;4.30;;
70002;SDS011;57341;51.984;5.088;2022-08-11T05:44:16;13.27;;;4.85;;
70002;SDS011;57341;51.984;5.088;2022-08-11T05:47:05;11.68;;;4.68;;
70002;SDS011;57341;51.984;5.088;2022-08-11T05:49:51;11.88;;;5.32;;
70002;SDS011;57341;51.984;5.088;2022-08-11T05:52:43;11.13;;;4.20;;
70002;SDS011;57341;51.984;5.088;2022-08-11T05:55:37;10.75;;;4.40;;
70002;SDS011;57341;51.984;5.088;2022-08-11T05:59:27;10.23;;;4.55;;
70002;SDS011;57341;51.984;5.088;2022-08-11T06:02:02;10.30;;;4.10;;
70002;SDS011;57341;51.984;5.088;2022-08-11T06:04:32;10.85;;;3.72;;
70002;SDS011;57341;51.984;5.088;2022-08-11T06:07:01;8.95;;;3.83;;
70002;SDS011;57341;51.984;5.088;2022-08-11T06:12:16;11.73;;;4.60;;
70002;SDS011;57341;51.984;5.088;2022-08-11T06:14:47;12.20;;;4.32;;
70002;SDS011;57341;51.984;5.088;2022-08-11T06:17:23;10.88;;;4.38;;
70002;SDS011;57341;51.984;5.088;2022-08-11T06:20:05;10.25;;;3.95;;
70002;SDS011;57341;51.984;5.088;2022-08-11T06:22:37;9.15;;;3.55;;
70002;SDS011;57341;51.984;5.088;2022-08-11T06:25:18;8.10;;;3.42;;
70002;SDS011;57341;51.984;5.088;2022-08-11T06:27:46;10.60;;;3.95;;
70002;SDS011;57341;51.984;5.088;2022-08-11T06:30:32;11.65;;;4.00;;
70002;SDS011;57341;51.984;5.088;2022-08-11T06:33:30;13.75;;;4.65;;
70002;SDS011;57341;51.984;5.088;2022-08-11T06:36:08;11.60;;;3.83;;
70002;SDS011;57341;51.984;5.088;2022-08-11T06:38:57;11.10;;;4.30;;
70002;SDS011;57341;51.984;5.088;2022-08-11T06:44:29;9.27;;;3.95;;
70002;SDS011;57341;51.984;5.088;2022-08-11T06:47:06;12.32;;;4.70;;
70002;SDS011;57341;51.984;5.088;2022-08-11T06:49:36;8.77;;;3.60;;
70002;SDS011;57341;51.984;5.088;2022-08-11T06:52:28;10.27;;;4.10;;
70002;SDS011;57341;51.984;5.088;2022-08-11T06:55:07;9.52;;;3.22;;
70002;SDS011;57341;51.984;5.088;2022-08-11T06:58:01;11.18;;;4.20;;
70002;SDS011;57341;51.984;5.088;2022-08-11T07:00:51;7.97;;;3.28;;
70002;SDS011;57341;51.984;5.088;2022-08-11T07:03:20;6.50;;;3.03;;
70002;SDS011;57341;51.984;5.088;2022-08-11T07:05:54;7.57;;;3.13;;
70002;SDS011;57341;51.984;5.088;2022-08-11T07:08:43;11.52;;;4.10;;
70002;SDS011;57341;51.984;5.088;2022-08-11T07:12:01;10.63;;;3.58;;
70002;SDS011;57341;51.984;5.088;2022-08-11T07:15:11;7.72;;;3.22;;
70002;SDS011;57341;51.984;5.088;2022-08-11T07:18:25;10.40;;;4.20;;
70002;SDS011;57341;51.984;5.088;2022-08-11T07:24:46;9.48;;;3.70;;
70002;SDS011;57341;51.984;5.088;2022-08-11T07:27:43;10.73;;;4.18;;
70002;SDS011;57341;51.984;5.088;2022-08-11T07:30:36;8.30;;;4.00;;
70002;SDS011;57341;51.984;5.088;2022-08-11T07:33:06;7.40;;;3.50;;
70002;SDS011;57341;51.984;5.088;2022-08-11T07:35:56;10.73;;;3.63;;
70002;SDS011;57341;51.984;5.088;2022-08-11T07:38:30;8.82;;;3.83;;
70002;SDS011;57341;51.984;5.088;2022-08-11T07:41:20;10.75;;;3.92;;
70002;SDS011;57341;51.984;5.088;2022-08-11T07:43:53;10.38;;;3.47;;
70002;SDS011;57341;51.984;5.088;2022-08-11T07:46:41;9.13;;;3.67;;
70002;SDS011;57341;51.984;5.088;2022-08-11T07:49:30;10.15;;;3.83;;
70002;SDS011;57341;51.984;5.088;2022-08-11T07:52:19;9.00;;;3.47;;
70002;SDS011;57341;51.984;5.088;2022-08-11T07:55:00;9.57;;;3.85;;
70002;SDS011;57341;51.984;5.088;2022-08-11T07:57:31;9.38;;;3.70;;
70002;SDS011;57341;51.984;5.088;2022-08-11T08:00:41;10.15;;;3.40;;
70002;SDS011;57341;51.984;5.088;2022-08-11T08:03:37;8.60;;;3.47;;
70002;SDS011;57341;51.984;5.088;2022-08-11T08:06:25;8.90;;;3.85;;
70002;SDS011;57341;51.984;5.088;2022-08-11T08:09:13;8.70;;;3.60;;
70002;SDS011;57341;51.984;5.088;2022-08-11T08:12:01;8.60;;;3.50;;
70002;SDS011;57341;51.984;5.088;2022-08-11T08:14:49;7.70;;;3.00;;
70002;SDS011;57341;51.984;5.088;2022-08-11T08:17:36;8.75;;;3.58;;
70002;SDS011;57341;51.984;5.088;2022-08-11T08:20:44;8.68;;;3.22;;
70002;SDS011;57341;51.984;5.088;2022-08-11T08:23:12;8.82;;;3.20;;
70002;SDS011;57341;51.984;5.088;2022-08-11T08:25:40;8.10;;;3.30;;
70002;SDS011;57341;51.984;5.088;2022-08-11T08:28:10;7.22;;;3.22;;
70002;SDS011;57341;51.984;5.088;2022-08-11T08:30:40;10.02;;;4.13;;
70002;SDS011;57341;51.984;5.088;2022-08-11T08:33:19;10.88;;;3.60;;
70002;SDS011;57341;51.984;5.088;2022-08-11T08:35:52;8.85;;;3.50;;
70002;SDS011;57341;51.984;5.088;2022-08-11T08:38:48;11.15;;;3.50;;
70002;SDS011;57341;51.984;5.088;2022-08-11T08:41:20;8.68;;;3.60;;
70002;SDS011;57341;51.984;5.088;2022-08-11T08:43:51;7.07;;;3.15;;
70002;SDS011;57341;51.984;5.088;2022-08-11T08:46:46;9.98;;;3.50;;
70002;SDS011;57341;51.984;5.088;2022-08-11T08:49:17;8.75;;;3.35;;
70002;SDS011;57341;51.984;5.088;2022-08-11T08:51:51;6.95;;;2.78;;
70002;SDS011;57341;51.984;5.088;2022-08-11T08:54:41;7.95;;;3.15;;
70002;SDS011;57341;51.984;5.088;2022-08-11T08:57:09;8.65;;;3.88;;
70002;SDS011;57341;51.984;5.088;2022-08-11T08:59:40;9.65;;;3.47;;
70002;SDS011;57341;51.984;5.088;2022-08-11T09:02:15;8.48;;;3.20;;
70002;SDS011;57341;51.984;5.088;2022-08-11T09:05:05;8.98;;;3.45;;
70002;SDS011;57341;51.984;5.088;2022-08-11T09:07:35;9.02;;;3.50;;
70002;SDS011;57341;51.984;5.088;2022-08-11T09:10:07;8.15;;;3.30;;
70002;SDS011;57341;51.984;5.088;2022-08-11T09:12:37;9.38;;;3.40;;
70002;SDS011;57341;51.984;5.088;2022-08-11T09:15:07;9.43;;;3.53;;
70002;SDS011;57341;51.984;5.088;2022-08-11T09:17:38;8.15;;;3.17;;
70002;SDS011;57341;51.984;5.088;2022-08-11T09:20:07;9.65;;;3.40;;
70002;SDS011;57341;51.984;5.088;2022-08-11T09:22:40;11.88;;;3.95;;
70002;SDS011;57341;51.984;5.088;2022-08-11T09:25:55;8.63;;;3.20;;
70002;SDS011;57341;51.984;5.088;2022-08-11T09:28:44;8.05;;;3.60;;
70002;SDS011;57341;51.984;5.088;2022-08-11T09:31:13;7.47;;;3.38;;
70002;SDS011;57341;51.984;5.088;2022-08-11T09:33:41;9.75;;;3.75;;
70002;SDS011;57341;51.984;5.088;2022-08-11T09:36:11;12.20;;;4.43;;
70002;SDS011;57341;51.984;5.088;2022-08-11T09:38:57;12.30;;;3.83;;
70002;SDS011;57341;51.984;5.088;2022-08-11T09:41:45;8.82;;;3.63;;
70002;SDS011;57341;51.984;5.088;2022-08-11T09:44:33;9.30;;;3.42;;
70002;SDS011;57341;51.984;5.088;2022-08-11T09:47:19;7.97;;;3.30;;
70002;SDS011;57341;51.984;5.088;2022-08-11T09:49:52;8.65;;;3.60;;
70002;SDS011;57341;51.984;5.088;2022-08-11T09:52:26;8.73;;;3.67;;
70002;SDS011;57341;51.984;5.088;2022-08-11T09:54:56;9.52;;;3.60;;
70002;SDS011;57341;51.984;5.088;2022-08-11T09:57:25;9.23;;;3.80;;
70002;SDS011;57341;51.984;5.088;2022-08-11T10:00:10;6.85;;;2.90;;
70002;SDS011;57341;51.984;5.088;2022-08-11T10:02:44;7.65;;;3.42;;
70002;SDS011;57341;51.984;5.088;2022-08-11T10:05:14;8.18;;;3.42;;
70002;SDS011;57341;51.984;5.088;2022-08-11T10:08:03;8.90;;;3.40;;
70002;SDS011;57341;51.984;5.088;2022-08-11T10:10:33;9.30;;;3.42;;
70002;SDS011;57341;51.984;5.088;2022-08-11T10:13:04;7.47;;;3.20;;
70002;SDS011;57341;51.984;5.088;2022-08-11T10:15:56;9.85;;;3.55;;
70002;SDS011;57341;51.984;5.088;2022-08-11T10:18:42;9.48;;;3.10;;
70002;SDS011;57341;51.984;5.088;2022-08-11T10:21:29;7.32;;;2.50;;
70002;SDS011;57341;51.984;5.088;2022-08-11T10:24:04;7.53;;;3.03;;
70002;SDS011;57341;51.984;5.088;2022-08-11T10:26:52;9.85;;;3.53;;
70002;SDS011;57341;51.984;5.088;2022-08-11T10:29:21;7.18;;;2.88;;
70002;SDS011;57341;51.984;5.088;2022-08-11T10:32:19;7.72;;;2.95;;
70002;SDS011;57341;51.984;5.088;2022-08-11T10:35:24;7.35;;;3.20;;
70002;SDS011;57341;51.984;5.088;2022-08-11T10:37:53;7.47;;;2.83;;
70002;SDS011;57341;51.984;5.088;2022-08-11T10:40:36;9.05;;;2.80;;
70002;SDS011;57341;51.984;5.088;2022-08-11T10:43:05;8.77;;;3.00;;
70002;SDS011;57341;51.984;5.088;2022-08-11T10:45:36;6.90;;;3.03;;
70002;SDS011;57341;51.984;5.088;2022-08-11T10:50:51;8.98;;;3.15;;
70002;SDS011;57341;51.984;5.088;2022-08-11T10:53:39;8.82;;;3.15;;
70002;SDS011;57341;51.984;5.088;2022-08-11T10:56:31;9.95;;;2.90;;
70002;SDS011;57341;51.984;5.088;2022-08-11T10:59:19;7.18;;;2.95;;
70002;SDS011;57341;51.984;5.088;2022-08-11T11:01:48;7.75;;;2.20;;
70002;SDS011;57341;51.984;5.088;2022-08-11T11:05:09;6.47;;;2.30;;
70002;SDS011;57341;51.984;5.088;2022-08-11T11:07:16;5.65;;;2.22;;
70002;SDS011;57341;51.984;5.088;2022-08-11T11:09:53;4.53;;;2.22;;
70002;SDS011;57341;51.984;5.088;2022-08-11T11:12:24;6.03;;;2.40;;
70002;SDS011;57341;51.984;5.088;2022-08-11T11:15:19;6.07;;;2.55;;
70002;SDS011;57341;51.984;5.088;2022-08-11T11:21:26;7.90;;;2.20;;
70002;SDS011;57341;51.984;5.088;2022-08-11T11:27:13;5.95;;;2.20;;
70002;SDS011;57341;51.984;5.088;2022-08-11T11:29:56;6.45;;;2.80;;
70002;SDS011;57341;51.984;5.088;2022-08-11T11:35:40;7.97;;;2.60;;
70002;SDS011;57341;51.984;5.088;2022-08-11T11:38:27;8.88;;;2.78;;
70002;SDS011;57341;51.984;5.088;2022-08-11T11:40:55;5.13;;;2.28;;
70002;SDS011;57341;51.984;5.088;2022-08-11T11:43:41;6.25;;;2.50;;
70002;SDS011;57341;51.984;5.088;2022-08-11T11:46:09;5.22;;;2.25;;
70002;SDS011;57341;51.984;5.088;2022-08-11T11:48:36;9.52;;;2.85;;
70002;SDS011;57341;51.984;5.088;2022-08-11T11:51:06;6.82;;;2.40;;
70002;SDS011;57341;51.984;5.088;2022-08-11T11:53:34;7.60;;;2.60;;
70002;SDS011;57341;51.984;5.088;2022-08-11T11:56:02;6.13;;;2.50;;
70002;SDS011;57341;51.984;5.088;2022-08-11T11:58:29;6.22;;;2.55;;
70002;SDS011;57341;51.984;5.088;2022-08-11T12:01:16;7.85;;;2.90;;
70002;SDS011;57341;51.984;5.088;2022-08-11T12:03:50;7.80;;;3.03;;
70002;SDS011;57341;51.984;5.088;2022-08-11T12:06:20;5.55;;;2.15;;
70002;SDS011;57341;51.984;5.088;2022-08-11T12:08:49;5.07;;;2.33;;
70002;SDS011;57341;51.984;5.088;2022-08-11T12:11:19;7.45;;;2.53;;
70002;SDS011;57341;51.984;5.088;2022-08-11T12:14:10;6.35;;;2.58;;
70002;SDS011;57341;51.984;5.088;2022-08-11T12:16:39;8.90;;;2.60;;
70002;SDS011;57341;51.984;5.088;2022-08-11T12:19:11;6.70;;;2.83;;
70002;SDS011;57341;51.984;5.088;2022-08-11T12:22:01;5.97;;;2.80;;
70002;SDS011;57341;51.984;5.088;2022-08-11T12:24:47;6.28;;;2.53;;
70002;SDS011;57341;51.984;5.088;2022-08-11T12:27:33;8.70;;;2.67;;
70002;SDS011;57341;51.984;5.088;2022-08-11T12:30:05;7.30;;;2.72;;
70002;SDS011;57341;51.984;5.088;2022-08-11T12:32:35;8.00;;;2.83;;
70002;SDS011;57341;51.984;5.088;2022-08-11T12:35:04;7.10;;;2.80;;
70002;SDS011;57341;51.984;5.088;2022-08-11T12:40:04;5.18;;;2.53;;
70002;SDS011;57341;51.984;5.088;2022-08-11T12:43:17;9.88;;;3.35;;
70002;SDS011;57341;51.984;5.088;2022-08-11T12:46:07;5.80;;;2.60;;
70002;SDS011;57341;51.984;5.088;2022-08-11T12:49:19;6.72;;;2.60;;
70002;SDS011;57341;51.984;5.088;2022-08-11T12:52:13;8.75;;;3.15;;
70002;SDS011;57341;51.984;5.088;2022-08-11T12:57:44;8.70;;;3.15;;
70002;SDS011;57341;51.984;5.088;2022-08-11T13:00:30;6.45;;;2.65;;
70002;SDS011;57341;51.984;5.088;2022-08-11T13:03:19;8.48;;;2.90;;
70002;SDS011;57341;51.984;5.088;2022-08-11T13:06:05;5.63;;;2.30;;
70002;SDS011;57341;51.984;5.088;2022-08-11T13:11:03;7.13;;;2.80;;
70002;SDS011;57341;51.984;5.088;2022-08-11T13:16:41;8.38;;;2.95;;
70002;SDS011;57341;51.984;5.088;2022-08-11T13:19:29;8.70;;;2.60;;
70002;SDS011;57341;51.984;5.088;2022-08-11T13:21:57;8.55;;;2.90;;
70002;SDS011;57341;51.984;5.088;2022-08-11T13:24:30;7.97;;;2.80;;
70002;SDS011;57341;51.984;5.088;2022-08-11T13:26:59;5.65;;;2.60;;
70002;SDS011;57341;51.984;5.088;2022-08-11T13:29:29;7.45;;;2.80;;
70002;SDS011;57341;51.984;5.088;2022-08-11T13:31:56;9.98;;;2.97;;
70002;SDS011;57341;51.984;5.088;2022-08-11T13:34:25;6.72;;;2.65;;
70002;SDS011;57341;51.984;5.088;2022-08-11T13:36:55;8.05;;;2.83;;
70002;SDS011;57341;51.984;5.088;2022-08-11T13:39:26;7.90;;;2.65;;
70002;SDS011;57341;51.984;5.088;2022-08-11T13:41:56;7.57;;;2.78;;
70002;SDS011;57341;51.984;5.088;2022-08-11T13:44:25;7.07;;;2.75;;
70002;SDS011;57341;51.984;5.088;2022-08-11T13:47:05;8.82;;;2.80;;
70002;SDS011;57341;51.984;5.088;2022-08-11T13:49:35;6.47;;;2.80;;
70002;SDS011;57341;51.984;5.088;2022-08-11T13:52:07;8.90;;;2.65;;
70002;SDS011;57341;51.984;5.088;2022-08-11T13:57:32;6.88;;;2.70;;
70002;SDS011;57341;51.984;5.088;2022-08-11T14:00:20;5.55;;;2.42;;
70002;SDS011;57341;51.984;5.088;2022-08-11T14:02:53;7.10;;;2.97;;
70002;SDS011;57341;51.984;5.088;2022-08-11T14:08:03;9.38;;;3.17;;
70002;SDS011;57341;51.984;5.088;2022-08-11T14:10:58;6.88;;;2.65;;
70002;SDS011;57341;51.984;5.088;2022-08-11T14:14:06;8.68;;;2.80;;
70002;SDS011;57341;51.984;5.088;2022-08-11T14:16:38;6.20;;;2.78;;
70002;SDS011;57341;51.984;5.088;2022-08-11T14:19:10;6.28;;;2.55;;
70002;SDS011;57341;51.984;5.088;2022-08-11T14:21:41;8.43;;;3.00;;
70002;SDS011;57341;51.984;5.088;2022-08-11T14:24:33;6.15;;;2.80;;
70002;SDS011;57341;51.984;5.088;2022-08-11T14:27:09;7.72;;;3.03;;
70002;SDS011;57341;51.984;5.088;2022-08-11T14:29:58;8.30;;;2.97;;
70002;SDS011;57341;51.984;5.088;2022-08-11T14:32:25;7.50;;;3.00;;
70002;SDS011;57341;51.984;5.088;2022-08-11T14:34:53;9.23;;;3.00;;
70002;SDS011;57341;51.984;5.088;2022-08-11T14:37:21;8.68;;;3.03;;
70002;SDS011;57341;51.984;5.088;2022-08-11T14:39:59;8.35;;;3.40;;
70002;SDS011;57341;51.984;5.088;2022-08-11T14:42:46;7.25;;;2.80;;
70002;SDS011;57341;51.984;5.088;2022-08-11T14:45:32;8.77;;;2.88;;
70002;SDS011;57341;51.984;5.088;2022-08-11T14:48:24;7.95;;;3.00;;
70002;SDS011;57341;51.984;5.088;2022-08-11T14:50:52;7.72;;;2.90;;
70002;SDS011;57341;51.984;5.088;2022-08-11T14:53:23;9.50;;;2.95;;
70002;SDS011;57341;51.984;5.088;2022-08-11T14:55:51;7.35;;;3.10;;
70002;SDS011;57341;51.984;5.088;2022-08-11T14:58:38;12.23;;;3.45;;
70002;SDS011;57341;51.984;5.088;2022-08-11T15:01:08;6.05;;;2.85;;
70002;SDS011;57341;51.984;5.088;2022-08-11T15:03:56;9.10;;;3.60;;
70002;SDS011;57341;51.984;5.088;2022-08-11T15:06:45;8.63;;;3.10;;
70002;SDS011;57341;51.984;5.088;2022-08-11T15:09:12;8.25;;;3.08;;
70002;SDS011;57341;51.984;5.088;2022-08-11T15:11:40;7.20;;;2.90;;
70002;SDS011;57341;51.984;5.088;2022-08-11T15:14:30;6.88;;;3.00;;
70002;SDS011;57341;51.984;5.088;2022-08-11T15:19:54;8.95;;;3.17;;
70002;SDS011;57341;51.984;5.088;2022-08-11T15:22:41;6.13;;;2.90;;
70002;SDS011;57341;51.984;5.088;2022-08-11T15:25:27;7.93;;;3.20;;
70002;SDS011;57341;51.984;5.088;2022-08-11T15:27:56;10.07;;;2.90;;
70002;SDS011;57341;51.984;5.088;2022-08-11T15:30:43;8.52;;;2.95;;
70002;SDS011;57341;51.984;5.088;2022-08-11T15:33:31;6.93;;;2.95;;
70002;SDS011;57341;51.984;5.088;2022-08-11T15:36:19;9.02;;;3.25;;
70002;SDS011;57341;51.984;5.088;2022-08-11T15:45:55;8.82;;;3.20;;
70002;SDS011;57341;51.984;5.088;2022-08-11T15:48:28;7.43;;;2.90;;
70002;SDS011;57341;51.984;5.088;2022-08-11T15:51:10;8.45;;;3.28;;
70002;SDS011;57341;51.984;5.088;2022-08-11T15:53:42;9.48;;;3.10;;
70002;SDS011;57341;51.984;5.088;2022-08-11T15:56:23;9.07;;;3.40;;
70002;SDS011;57341;51.984;5.088;2022-08-11T15:58:53;9.40;;;2.95;;
70002;SDS011;57341;51.984;5.088;2022-08-11T16:02:01;5.97;;;2.95;;
70002;SDS011;57341;51.984;5.088;2022-08-11T16:04:48;6.85;;;2.78;;
70002;SDS011;57341;51.984;5.088;2022-08-11T16:07:18;8.40;;;2.90;;
70002;SDS011;57341;51.984;5.088;2022-08-11T16:09:54;8.27;;;3.05;;
70002;SDS011;57341;51.984;5.088;2022-08-11T16:12:45;7.60;;;2.80;;
70002;SDS011;57341;51.984;5.088;2022-08-11T16:15:31;8.82;;;3.13;;
70002;SDS011;57341;51.984;5.088;2022-08-11T16:18:21;6.03;;;2.78;;
70002;SDS011;57341;51.984;5.088;2022-08-11T16:21:10;5.97;;;2.67;;
70002;SDS011;57341;51.984;5.088;2022-08-11T16:24:00;8.65;;;3.40;;
70002;SDS011;57341;51.984;5.088;2022-08-11T16:26:30;6.50;;;2.80;;
70002;SDS011;57341;51.984;5.088;2022-08-11T16:29:20;7.60;;;3.00;;
70002;SDS011;57341;51.984;5.088;2022-08-11T16:31:50;7.65;;;2.90;;
70002;SDS011;57341;51.984;5.088;2022-08-11T16:34:44;8.50;;;3.00;;
70002;SDS011;57341;51.984;5.088;2022-08-11T16:37:35;10.25;;;3.45;;
70002;SDS011;57341;51.984;5.088;2022-08-11T16:40:22;7.57;;;3.00;;
70002;SDS011;57341;51.984;5.088;2022-08-11T16:42:50;6.88;;;3.10;;
70002;SDS011;57341;51.984;5.088;2022-08-11T16:45:38;7.85;;;2.92;;
70002;SDS011;57341;51.984;5.088;2022-08-11T16:48:27;6.85;;;2.78;;
70002;SDS011;57341;51.984;5.088;2022-08-11T16:51:06;9.93;;;2.83;;
70002;SDS011;57341;51.984;5.088;2022-08-11T16:53:37;8.95;;;3.70;;
70002;SDS011;57341;51.984;5.088;2022-08-11T16:56:31;7.25;;;2.83;;
70002;SDS011;57341;51.984;5.088;2022-08-11T16:59:10;6.10;;;2.70;;
70002;SDS011;57341;51.984;5.088;2022-08-11T17:01:49;8.73;;;3.13;;
70002;SDS011;57341;51.984;5.088;2022-08-11T17:05:01;9.95;;;4.78;;
70002;SDS011;57341;51.984;5.088;2022-08-11T17:08:25;7.55;;;3.15;;
70002;SDS011;57341;51.984;5.088;2022-08-11T17:11:26;7.18;;;3.03;;
70002;SDS011;57341;51.984;5.088;2022-08-11T17:14:15;9.60;;;4.07;;
70002;SDS011;57341;51.984;5.088;2022-08-11T17:17:05;8.20;;;3.00;;
70002;SDS011;57341;51.984;5.088;2022-08-11T17:19:37;5.47;;;2.58;;
70002;SDS011;57341;51.984;5.088;2022-08-11T17:22:35;5.57;;;2.60;;
70002;SDS011;57341;51.984;5.088;2022-08-11T17:25:25;7.50;;;3.05;;
70002;SDS011;57341;51.984;5.088;2022-08-11T17:28:17;7.47;;;3.03;;
70002;SDS011;57341;51.984;5.088;2022-08-11T17:30:49;7.50;;;3.00;;
70002;SDS011;57341;51.984;5.088;2022-08-11T17:33:54;7.90;;;2.67;;
70002;SDS011;57341;51.984;5.088;2022-08-11T17:36:40;7.60;;;2.72;;
70002;SDS011;57341;51.984;5.088;2022-08-11T17:39:11;8.35;;;2.70;;
70002;SDS011;57341;51.984;5.088;2022-08-11T17:41:41;8.50;;;3.42;;
70002;SDS011;57341;51.984;5.088;2022-08-11T17:44:32;11.45;;;5.55;;
70002;SDS011;57341;51.984;5.088;2022-08-11T17:47:21;13.10;;;6.63;;
70002;SDS011;57341;51.984;5.088;2022-08-11T17:50:13;7.10;;;2.97;;
70002;SDS011;57341;51.984;5.088;2022-08-11T17:52:43;9.73;;;2.88;;
70002;SDS011;57341;51.984;5.088;2022-08-11T17:55:34;8.57;;;3.50;;
70002;SDS011;57341;51.984;5.088;2022-08-11T17:58:23;10.23;;;4.18;;
70002;SDS011;57341;51.984;5.088;2022-08-11T18:01:10;10.02;;;4.60;;
70002;SDS011;57341;51.984;5.088;2022-08-11T18:03:39;9.70;;;2.90;;
70002;SDS011;57341;51.984;5.088;2022-08-11T18:06:23;10.70;;;4.82;;
70002;SDS011;57341;51.984;5.088;2022-08-11T18:09:07;8.50;;;3.42;;
70002;SDS011;57341;51.984;5.088;2022-08-11T18:12:05;10.68;;;3.40;;
70002;SDS011;57341;51.984;5.088;2022-08-11T18:14:55;8.40;;;2.90;;
70002;SDS011;57341;51.984;5.088;2022-08-11T18:17:42;10.20;;;3.40;;
70002;SDS011;57341;51.984;5.088;2022-08-11T18:20:27;8.20;;;3.60;;
70002;SDS011;57341;51.984;5.088;2022-08-11T18:23:15;6.93;;;2.90;;
70002;SDS011;57341;51.984;5.088;2022-08-11T18:26:14;6.75;;;2.90;;
70002;SDS011;57341;51.984;5.088;2022-08-11T18:29:04;8.30;;;2.38;;
70002;SDS011;57341;51.984;5.088;2022-08-11T18:31:52;7.15;;;2.65;;
70002;SDS011;57341;51.984;5.088;2022-08-11T18:34:50;8.30;;;3.15;;
70002;SDS011;57341;51.984;5.088;2022-08-11T18:37:45;5.75;;;2.60;;
70002;SDS011;57341;51.984;5.088;2022-08-11T18:40:36;6.07;;;2.40;;
70002;SDS011;57341;51.984;5.088;2022-08-11T18:43:23;7.70;;;2.72;;
70002;SDS011;57341;51.984;5.088;2022-08-11T18:46:11;7.10;;;2.42;;
70002;SDS011;57341;51.984;5.088;2022-08-11T18:49:06;6.88;;;2.55;;
70002;SDS011;57341;51.984;5.088;2022-08-11T18:52:15;11.15;;;3.28;;
70002;SDS011;57341;51.984;5.088;2022-08-11T18:55:02;9.23;;;2.45;;
70002;SDS011;57341;51.984;5.088;2022-08-11T18:57:51;7.35;;;2.40;;
70002;SDS011;57341;51.984;5.088;2022-08-11T19:00:39;5.70;;;2.30;;
70002;SDS011;57341;51.984;5.088;2022-08-11T19:03:27;8.90;;;2.53;;
70002;SDS011;57341;51.984;5.088;2022-08-11T19:06:15;7.75;;;2.30;;
70002;SDS011;57341;51.984;5.088;2022-08-11T19:09:07;6.93;;;2.50;;
70002;SDS011;57341;51.984;5.088;2022-08-11T19:12:00;7.07;;;2.15;;
70002;SDS011;57341;51.984;5.088;2022-08-11T19:14:50;4.82;;;2.13;;
70002;SDS011;57341;51.984;5.088;2022-08-11T19:17:40;8.15;;;2.42;;
70002;SDS011;57341;51.984;5.088;2022-08-11T19:20:29;6.07;;;2.47;;
70002;SDS011;57341;51.984;5.088;2022-08-11T19:23:17;7.25;;;2.60;;
70002;SDS011;57341;51.984;5.088;2022-08-11T19:26:08;4.80;;;2.20;;
70002;SDS011;57341;51.984;5.088;2022-08-11T19:28:55;6.40;;;2.17;;
70002;SDS011;57341;51.984;5.088;2022-08-11T19:32:02;6.85;;;2.40;;
70002;SDS011;57341;51.984;5.088;2022-08-11T19:34:49;7.57;;;2.13;;
70002;SDS011;57341;51.984;5.088;2022-08-11T19:37:37;9.00;;;2.60;;
70002;SDS011;57341;51.984;5.088;2022-08-11T19:40:24;5.82;;;2.28;;
70002;SDS011;57341;51.984;5.088;2022-08-11T19:43:10;9.13;;;2.70;;
70002;SDS011;57341;51.984;5.088;2022-08-11T19:45:58;9.60;;;4.75;;
70002;SDS011;57341;51.984;5.088;2022-08-11T19:48:45;9.90;;;3.00;;
70002;SDS011;57341;51.984;5.088;2022-08-11T19:51:44;7.93;;;2.30;;
70002;SDS011;57341;51.984;5.088;2022-08-11T19:54:32;9.23;;;2.70;;